createdAt,value
2017-09-06T00:00:59.167Z,0
2017-09-06T00:01:59.822Z,0
2017-09-06T00:03:00.778Z,0
2017-09-06T00:04:01.442Z,0
2017-09-06T00:05:02.092Z,0
2017-09-06T00:06:02.747Z,0
2017-09-06T00:07:03.402Z,0
2017-09-06T00:08:04.313Z,0
2017-09-06T00:09:04.965Z,0
2017-09-06T00:10:05.621Z,0
2017-09-06T00:11:06.281Z,0
2017-09-06T00:12:06.938Z,0
2017-09-06T00:13:07.843Z,0
2017-09-06T00:14:08.500Z,0
2017-09-06T00:15:09.157Z,0
2017-09-06T00:16:09.812Z,0
2017-09-06T00:17:10.467Z,0
2017-09-06T00:18:11.375Z,0
2017-09-06T00:19:12.031Z,0
2017-09-06T00:20:12.687Z,0
2017-09-06T00:21:13.345Z,0
2017-09-06T00:22:14.000Z,0
2017-09-06T00:23:15.007Z,0
2017-09-06T00:24:15.662Z,0
2017-09-06T00:25:16.319Z,0
2017-09-06T00:26:16.974Z,0
2017-09-06T00:27:17.630Z,0
2017-09-06T00:28:18.537Z,0
2017-09-06T00:29:19.192Z,0
2017-09-06T00:30:19.848Z,0
2017-09-06T00:31:20.505Z,0
2017-09-06T00:32:21.195Z,0
2017-09-06T00:33:22.201Z,0
2017-09-06T00:34:22.856Z,0
2017-09-06T00:35:23.517Z,0
2017-09-06T00:36:24.169Z,0
2017-09-06T00:37:24.826Z,0
2017-09-06T00:38:25.782Z,0
2017-09-06T00:39:26.436Z,0
2017-09-06T00:40:27.124Z,0
2017-09-06T00:41:27.748Z,0
2017-09-06T00:42:28.405Z,0
2017-09-06T00:43:29.311Z,0
2017-09-06T00:44:29.967Z,0
2017-09-06T00:45:30.624Z,0
2017-09-06T00:46:31.278Z,0
2017-09-06T00:47:31.935Z,0
2017-09-06T00:48:32.843Z,0
2017-09-06T00:49:33.498Z,0
2017-09-06T00:50:34.155Z,0
2017-09-06T00:51:34.811Z,0
2017-09-06T00:52:35.466Z,0
2017-09-06T00:53:36.375Z,0
2017-09-06T00:54:37.031Z,0
2017-09-06T00:55:37.694Z,0
2017-09-06T00:56:38.350Z,0
2017-09-06T00:57:39.005Z,0
2017-09-06T00:58:39.912Z,0
2017-09-06T00:59:40.566Z,0
2017-09-06T01:00:41.223Z,0
2017-09-06T01:01:41.883Z,0
2017-09-06T01:02:42.573Z,0
2017-09-06T01:03:43.580Z,0
2017-09-06T01:04:44.238Z,0
2017-09-06T01:05:44.895Z,0
2017-09-06T01:06:45.549Z,0
2017-09-06T01:07:46.206Z,0
2017-09-06T01:08:47.112Z,0
2017-09-06T01:09:47.770Z,0
2017-09-06T01:10:48.458Z,0
2017-09-06T01:11:49.115Z,0
2017-09-06T01:12:49.770Z,0
2017-09-06T01:13:50.676Z,0
2017-09-06T01:14:51.334Z,0
2017-09-06T01:15:51.996Z,0
2017-09-06T01:16:52.682Z,0
2017-09-06T01:17:53.337Z,0
2017-09-06T01:18:54.327Z,0
2017-09-06T01:19:54.983Z,0
2017-09-06T01:20:55.641Z,0
2017-09-06T01:21:56.295Z,0
2017-09-06T01:22:56.951Z,0
2017-09-06T01:23:57.985Z,0
2017-09-06T01:24:58.652Z,0
2017-09-06T01:25:59.306Z,0
2017-09-06T01:26:59.962Z,0
2017-09-06T01:28:00.619Z,0
2017-09-06T01:29:01.525Z,0
2017-09-06T01:30:02.180Z,0
2017-09-06T01:31:02.839Z,0
2017-09-06T01:32:03.494Z,0
2017-09-06T01:33:04.151Z,0
2017-09-06T01:34:05.057Z,0
2017-09-06T01:35:05.712Z,0
2017-09-06T01:36:06.368Z,0
2017-09-06T01:37:07.026Z,0
2017-09-06T01:38:07.680Z,0
2017-09-06T01:39:08.587Z,0
2017-09-06T01:40:09.244Z,0
2017-09-06T01:41:09.899Z,0
2017-09-06T01:42:10.554Z,0
2017-09-06T01:43:11.248Z,0
2017-09-06T01:44:12.153Z,0
2017-09-06T01:45:12.811Z,0
2017-09-06T01:46:13.504Z,0
2017-09-06T01:47:14.159Z,0
2017-09-06T01:48:14.819Z,0
2017-09-06T01:49:16.023Z,0
2017-09-06T01:50:16.678Z,0
2017-09-06T01:51:17.335Z,0
2017-09-06T01:52:17.991Z,0
2017-09-06T01:53:18.646Z,0
2017-09-06T01:54:19.553Z,0
2017-09-06T01:55:20.209Z,0
2017-09-06T01:56:20.900Z,0
2017-09-06T01:57:21.556Z,0
2017-09-06T01:58:22.212Z,0
2017-09-06T01:59:23.119Z,0
2017-09-06T02:00:23.796Z,0
2017-09-06T02:01:24.438Z,0
2017-09-06T02:02:25.094Z,0
2017-09-06T02:03:25.749Z,0
2017-09-06T02:04:26.757Z,0
2017-09-06T02:05:27.412Z,0
2017-09-06T02:06:28.069Z,0
2017-09-06T02:07:28.725Z,0
2017-09-06T02:08:29.381Z,0
2017-09-06T02:09:30.290Z,0
2017-09-06T02:10:30.944Z,0
2017-09-06T02:11:31.601Z,0
2017-09-06T02:12:32.258Z,0
2017-09-06T02:13:32.914Z,0
2017-09-06T02:14:33.869Z,0
2017-09-06T02:15:34.524Z,0
2017-09-06T02:16:35.181Z,0
2017-09-06T02:17:35.836Z,0
2017-09-06T02:18:36.493Z,0
2017-09-06T02:19:37.399Z,0
2017-09-06T02:20:38.055Z,0
2017-09-06T02:21:38.712Z,0
2017-09-06T02:22:39.366Z,0
2017-09-06T02:23:40.029Z,0
2017-09-06T02:24:40.936Z,0
2017-09-06T02:25:41.593Z,0
2017-09-06T02:26:42.250Z,0
2017-09-06T02:27:42.905Z,0
2017-09-06T02:28:43.561Z,0
2017-09-06T02:29:44.518Z,0
2017-09-06T02:30:45.173Z,0
2017-09-06T02:31:45.828Z,0
2017-09-06T02:32:46.483Z,0
2017-09-06T02:33:47.141Z,0
2017-09-06T02:34:48.047Z,0
2017-09-06T02:35:48.740Z,0
2017-09-06T02:36:49.394Z,0
2017-09-06T02:37:50.057Z,0
2017-09-06T02:38:50.744Z,0
2017-09-06T02:39:51.698Z,0
2017-09-06T02:40:52.356Z,0
2017-09-06T02:41:53.011Z,0
2017-09-06T02:42:53.668Z,0
2017-09-06T02:43:54.324Z,0
2017-09-06T02:44:55.239Z,0
2017-09-06T02:45:55.895Z,0
2017-09-06T02:46:56.553Z,0
2017-09-06T02:47:57.207Z,0
2017-09-06T02:48:57.864Z,0
2017-09-06T02:49:58.771Z,0
2017-09-06T02:50:59.428Z,0
2017-09-06T02:52:00.085Z,0
2017-09-06T02:53:00.742Z,0
2017-09-06T02:54:01.397Z,0
2017-09-06T02:55:02.306Z,0
2017-09-06T02:56:02.961Z,0
2017-09-06T02:57:03.617Z,0
2017-09-06T02:58:04.307Z,0
2017-09-06T02:59:04.966Z,0
2017-09-06T03:00:05.872Z,0
2017-09-06T03:01:06.529Z,0
2017-09-06T03:02:07.188Z,0
2017-09-06T03:03:07.843Z,0
2017-09-06T03:04:08.500Z,0
2017-09-06T03:05:09.493Z,0
2017-09-06T03:06:10.149Z,0
2017-09-06T03:07:10.804Z,0
2017-09-06T03:08:11.459Z,0
2017-09-06T03:09:12.124Z,0
2017-09-06T03:10:13.124Z,0
2017-09-06T03:11:13.782Z,0
2017-09-06T03:12:14.435Z,0
2017-09-06T03:13:15.093Z,0
2017-09-06T03:14:15.747Z,0
2017-09-06T03:15:16.655Z,0
2017-09-06T03:16:17.349Z,0
2017-09-06T03:17:17.968Z,0
2017-09-06T03:18:18.624Z,0
2017-09-06T03:19:19.280Z,0
2017-09-06T03:20:20.236Z,0
2017-09-06T03:21:20.891Z,0
2017-09-06T03:22:21.551Z,0
2017-09-06T03:23:22.239Z,0
2017-09-06T03:24:22.895Z,0
2017-09-06T03:25:23.801Z,0
2017-09-06T03:26:24.456Z,0
2017-09-06T03:27:25.113Z,0
2017-09-06T03:28:25.769Z,0
2017-09-06T03:29:26.425Z,0
2017-09-06T03:30:27.387Z,0
2017-09-06T03:31:28.038Z,0
2017-09-06T03:32:28.693Z,0
2017-09-06T03:33:29.350Z,0
2017-09-06T03:34:30.005Z,0
2017-09-06T03:35:30.911Z,0
2017-09-06T03:36:31.568Z,0
2017-09-06T03:37:32.223Z,0
2017-09-06T03:38:32.878Z,0
2017-09-06T03:39:33.535Z,0
2017-09-06T03:40:34.441Z,0
2017-09-06T03:41:35.096Z,0
2017-09-06T03:42:35.751Z,0
2017-09-06T03:43:36.407Z,0
2017-09-06T03:44:37.062Z,0
2017-09-06T03:45:37.969Z,0
2017-09-06T03:46:38.625Z,0
2017-09-06T03:47:39.281Z,0
2017-09-06T03:48:39.939Z,0
2017-09-06T03:49:40.597Z,0
2017-09-06T03:50:41.501Z,0
2017-09-06T03:51:42.158Z,0
2017-09-06T03:52:42.812Z,0
2017-09-06T03:53:43.469Z,0
2017-09-06T03:54:44.124Z,0
2017-09-06T03:55:45.030Z,0
2017-09-06T03:56:45.686Z,0
2017-09-06T03:57:46.344Z,0
2017-09-06T03:58:47.000Z,0
2017-09-06T03:59:47.656Z,0
2017-09-06T04:00:48.561Z,0
2017-09-06T04:01:49.216Z,0
2017-09-06T04:02:49.872Z,0
2017-09-06T04:03:50.527Z,0
2017-09-06T04:04:51.182Z,0
2017-09-06T04:05:52.089Z,0
2017-09-06T04:06:52.745Z,0
2017-09-06T04:07:53.400Z,0
2017-09-06T04:08:54.055Z,0
2017-09-06T04:09:54.711Z,0
2017-09-06T04:10:55.727Z,0
2017-09-06T04:11:56.383Z,0
2017-09-06T04:12:57.039Z,4
2017-09-06T04:13:57.725Z,4
2017-09-06T04:14:58.351Z,4
2017-09-06T04:15:59.261Z,4
2017-09-06T04:16:59.913Z,4
2017-09-06T04:18:00.570Z,8
2017-09-06T04:19:01.265Z,8
2017-09-06T04:20:01.929Z,12
2017-09-06T04:21:02.825Z,12
2017-09-06T04:22:03.482Z,12
2017-09-06T04:23:04.140Z,16
2017-09-06T04:24:04.794Z,16
2017-09-06T04:25:05.452Z,20
2017-09-06T04:26:06.358Z,24
2017-09-06T04:27:07.016Z,24
2017-09-06T04:28:07.673Z,24
2017-09-06T04:29:08.331Z,28
2017-09-06T04:30:08.989Z,32
2017-09-06T04:31:09.944Z,32
2017-09-06T04:32:10.601Z,36
2017-09-06T04:33:11.259Z,36
2017-09-06T04:34:11.916Z,36
2017-09-06T04:35:12.570Z,40
2017-09-06T04:36:13.479Z,44
2017-09-06T04:37:14.137Z,56
2017-09-06T04:38:14.793Z,64
2017-09-06T04:39:15.451Z,72
2017-09-06T04:40:16.107Z,88
2017-09-06T04:41:17.015Z,100
2017-09-06T04:42:17.673Z,116
2017-09-06T04:43:18.332Z,132
2017-09-06T04:44:18.991Z,152
2017-09-06T04:45:19.650Z,172
2017-09-06T04:46:20.558Z,188
2017-09-06T04:47:21.218Z,204
2017-09-06T04:48:21.876Z,216
2017-09-06T04:49:22.533Z,224
2017-09-06T04:50:23.191Z,208
2017-09-06T04:51:24.100Z,196
2017-09-06T04:52:24.758Z,176
2017-09-06T04:53:25.416Z,152
2017-09-06T04:54:26.080Z,140
2017-09-06T04:55:26.734Z,132
2017-09-06T04:56:27.641Z,132
2017-09-06T04:57:28.298Z,132
2017-09-06T04:58:28.957Z,140
2017-09-06T04:59:29.615Z,140
2017-09-06T05:00:30.275Z,152
2017-09-06T05:01:31.234Z,168
2017-09-06T05:02:31.890Z,188
2017-09-06T05:03:32.550Z,212
2017-09-06T05:04:33.208Z,244
2017-09-06T05:05:33.900Z,276
2017-09-06T05:06:34.819Z,304
2017-09-06T05:07:35.467Z,328
2017-09-06T05:08:36.125Z,360
2017-09-06T05:09:36.783Z,392
2017-09-06T05:10:37.444Z,440
2017-09-06T05:11:38.449Z,508
2017-09-06T05:12:39.107Z,580
2017-09-06T05:13:39.787Z,640
2017-09-06T05:14:40.445Z,688
2017-09-06T05:15:41.104Z,772
2017-09-06T05:16:42.011Z,888
2017-09-06T05:17:42.671Z,996
2017-09-06T05:18:43.329Z,1092
2017-09-06T05:19:43.989Z,1192
2017-09-06T05:20:44.652Z,1272
2017-09-06T05:21:45.660Z,1332
2017-09-06T05:22:46.322Z,1388
2017-09-06T05:23:46.984Z,1416
2017-09-06T05:24:47.643Z,1416
2017-09-06T05:25:48.303Z,1400
2017-09-06T05:26:49.265Z,1340
2017-09-06T05:27:49.925Z,1232
2017-09-06T05:28:50.622Z,1152
2017-09-06T05:29:51.282Z,1196
2017-09-06T05:30:51.953Z,1252
2017-09-06T05:31:52.855Z,1272
2017-09-06T05:32:53.519Z,1292
2017-09-06T05:33:54.176Z,1340
2017-09-06T05:34:54.844Z,1404
2017-09-06T05:35:55.498Z,1436
2017-09-06T05:36:56.407Z,1436
2017-09-06T05:37:57.070Z,1456
2017-09-06T05:38:57.729Z,1520
2017-09-06T05:39:58.388Z,1544
2017-09-06T05:40:59.049Z,1540
2017-09-06T05:41:59.958Z,1528
2017-09-06T05:43:00.621Z,1584
2017-09-06T05:44:01.279Z,1744
2017-09-06T05:45:01.940Z,1936
2017-09-06T05:46:02.602Z,2092
2017-09-06T05:47:03.613Z,2164
2017-09-06T05:48:04.271Z,2224
2017-09-06T05:49:04.969Z,2248
2017-09-06T05:50:05.625Z,2204
2017-09-06T05:51:06.284Z,2136
2017-09-06T05:52:07.194Z,2204
2017-09-06T05:53:07.854Z,2188
2017-09-06T05:54:08.548Z,2100
2017-09-06T05:55:09.207Z,2008
2017-09-06T05:56:09.868Z,1968
2017-09-06T05:57:10.778Z,1988
2017-09-06T05:58:11.439Z,2036
2017-09-06T05:59:12.134Z,2116
2017-09-06T06:00:12.830Z,2240
2017-09-06T06:01:13.490Z,2424
2017-09-06T06:02:14.454Z,2604
2017-09-06T06:03:15.149Z,2732
2017-09-06T06:04:15.811Z,2804
2017-09-06T06:05:16.472Z,2892
2017-09-06T06:06:17.131Z,2940
2017-09-06T06:07:18.042Z,2960
2017-09-06T06:08:18.703Z,2992
2017-09-06T06:09:19.364Z,3108
2017-09-06T06:10:20.023Z,3308
2017-09-06T06:11:20.720Z,3552
2017-09-06T06:12:21.631Z,3792
2017-09-06T06:13:22.299Z,4020
2017-09-06T06:14:22.952Z,4220
2017-09-06T06:15:23.620Z,4372
2017-09-06T06:16:24.282Z,4468
2017-09-06T06:17:25.193Z,4504
2017-09-06T06:18:25.855Z,4416
2017-09-06T06:19:26.519Z,4308
2017-09-06T06:20:27.179Z,4248
2017-09-06T06:21:27.837Z,4104
2017-09-06T06:22:28.750Z,3880
2017-09-06T06:23:29.411Z,3592
2017-09-06T06:24:30.073Z,3352
2017-09-06T06:25:30.733Z,3220
2017-09-06T06:26:31.394Z,3176
2017-09-06T06:27:32.404Z,3252
2017-09-06T06:28:33.066Z,3468
2017-09-06T06:29:33.726Z,3664
2017-09-06T06:30:34.394Z,3852
2017-09-06T06:31:35.082Z,4000
2017-09-06T06:32:36.095Z,4052
2017-09-06T06:33:36.755Z,4044
2017-09-06T06:34:37.414Z,4080
2017-09-06T06:35:38.075Z,4184
2017-09-06T06:36:38.737Z,4288
2017-09-06T06:37:39.648Z,4400
2017-09-06T06:38:40.311Z,4584
2017-09-06T06:39:40.968Z,4880
2017-09-06T06:40:41.631Z,5180
2017-09-06T06:41:42.293Z,5332
2017-09-06T06:42:43.202Z,5428
2017-09-06T06:43:43.863Z,5532
2017-09-06T06:44:44.523Z,5704
2017-09-06T06:45:45.185Z,5944
2017-09-06T06:46:45.858Z,6284
2017-09-06T06:47:46.842Z,6740
2017-09-06T06:48:47.504Z,7364
2017-09-06T06:49:48.166Z,8100
2017-09-06T06:50:48.830Z,8912
2017-09-06T06:51:49.494Z,9628
2017-09-06T06:52:50.407Z,10020
2017-09-06T06:53:51.073Z,9996
2017-09-06T06:54:51.734Z,10040
2017-09-06T06:55:52.396Z,10032
2017-09-06T06:56:53.060Z,10088
2017-09-06T06:57:53.977Z,10048
2017-09-06T06:58:54.672Z,9792
2017-09-06T06:59:55.332Z,9612
2017-09-06T07:00:56.031Z,9348
2017-09-06T07:01:56.698Z,8780
2017-09-06T07:02:57.613Z,8456
2017-09-06T07:03:58.275Z,8748
2017-09-06T07:04:58.941Z,9104
2017-09-06T07:05:59.602Z,9876
2017-09-06T07:07:00.264Z,10240
2017-09-06T07:08:01.180Z,10252
2017-09-06T07:09:01.843Z,10036
2017-09-06T07:10:02.504Z,9712
2017-09-06T07:11:03.165Z,9820
2017-09-06T07:12:03.828Z,10176
2017-09-06T07:13:04.743Z,10220
2017-09-06T07:14:05.408Z,9572
2017-09-06T07:15:06.067Z,8996
2017-09-06T07:16:06.729Z,9040
2017-09-06T07:17:07.392Z,9196
2017-09-06T07:18:08.440Z,8880
2017-09-06T07:19:09.102Z,8584
2017-09-06T07:20:09.767Z,8560
2017-09-06T07:21:10.430Z,8556
2017-09-06T07:22:11.092Z,8592
2017-09-06T07:23:12.004Z,8744
2017-09-06T07:24:12.667Z,8860
2017-09-06T07:25:13.329Z,9100
2017-09-06T07:26:13.992Z,9128
2017-09-06T07:27:14.663Z,9144
2017-09-06T07:28:15.564Z,9204
2017-09-06T07:29:16.226Z,9348
2017-09-06T07:30:16.889Z,9496
2017-09-06T07:31:17.560Z,9692
2017-09-06T07:32:18.225Z,10364
2017-09-06T07:33:19.139Z,11344
2017-09-06T07:34:19.797Z,11912
2017-09-06T07:35:20.462Z,10964
2017-09-06T07:36:21.125Z,11960
2017-09-06T07:37:21.788Z,11860
2017-09-06T07:38:22.753Z,11684
2017-09-06T07:39:23.417Z,12164
2017-09-06T07:40:24.082Z,12496
2017-09-06T07:41:24.743Z,12620
2017-09-06T07:42:25.407Z,12640
2017-09-06T07:43:26.321Z,12580
2017-09-06T07:44:26.989Z,12124
2017-09-06T07:45:27.649Z,11220
2017-09-06T07:46:28.317Z,12196
2017-09-06T07:47:28.977Z,11676
2017-09-06T07:48:29.890Z,10816
2017-09-06T07:49:30.555Z,10028
2017-09-06T07:50:31.218Z,9084
2017-09-06T07:51:31.881Z,9216
2017-09-06T07:52:32.545Z,10140
2017-09-06T07:53:33.460Z,12320
2017-09-06T07:54:34.124Z,14504
2017-09-06T07:55:34.798Z,16228
2017-09-06T07:56:35.498Z,15688
2017-09-06T07:57:36.169Z,14044
2017-09-06T07:58:37.075Z,12676
2017-09-06T07:59:37.739Z,12944
2017-09-06T08:00:38.403Z,13788
2017-09-06T08:01:39.065Z,14672
2017-09-06T08:02:39.729Z,15432
2017-09-06T08:03:40.641Z,15960
2017-09-06T08:04:41.305Z,16916
2017-09-06T08:05:41.969Z,18432
2017-09-06T08:06:42.633Z,19840
2017-09-06T08:07:43.296Z,21152
2017-09-06T08:08:44.293Z,21312
2017-09-06T08:09:44.956Z,20288
2017-09-06T08:10:45.622Z,17920
2017-09-06T08:11:46.287Z,15168
2017-09-06T08:12:46.954Z,13568
2017-09-06T08:13:47.901Z,12612
2017-09-06T08:14:48.564Z,11860
2017-09-06T08:15:49.231Z,11532
2017-09-06T08:16:49.897Z,11268
2017-09-06T08:17:50.564Z,11068
2017-09-06T08:18:51.511Z,10948
2017-09-06T08:19:52.174Z,11720
2017-09-06T08:20:52.838Z,12820
2017-09-06T08:21:53.503Z,13664
2017-09-06T08:22:54.165Z,14452
2017-09-06T08:23:55.079Z,15140
2017-09-06T08:24:55.750Z,15628
2017-09-06T08:25:56.453Z,15760
2017-09-06T08:26:57.113Z,15820
2017-09-06T08:27:57.779Z,16424
2017-09-06T08:28:58.693Z,16856
2017-09-06T08:29:59.357Z,17376
2017-09-06T08:31:00.021Z,17632
2017-09-06T08:32:00.685Z,17888
2017-09-06T08:33:01.385Z,17888
2017-09-06T08:34:02.300Z,17760
2017-09-06T08:35:02.964Z,17888
2017-09-06T08:36:03.628Z,17792
2017-09-06T08:37:04.292Z,17024
2017-09-06T08:38:04.957Z,16656
2017-09-06T08:39:05.880Z,16756
2017-09-06T08:40:06.537Z,17008
2017-09-06T08:41:07.200Z,17952
2017-09-06T08:42:07.866Z,19904
2017-09-06T08:43:08.530Z,23520
2017-09-06T08:44:09.444Z,25472
2017-09-06T08:45:10.110Z,24448
2017-09-06T08:46:10.774Z,20384
2017-09-06T08:47:11.437Z,17184
2017-09-06T08:48:12.102Z,15608
2017-09-06T08:49:13.115Z,13620
2017-09-06T08:50:13.780Z,12428
2017-09-06T08:51:14.482Z,12188
2017-09-06T08:52:15.146Z,11460
2017-09-06T08:53:15.810Z,11132
2017-09-06T08:54:16.775Z,10540
2017-09-06T08:55:17.436Z,9504
2017-09-06T08:56:18.100Z,8916
2017-09-06T08:57:18.765Z,8680
2017-09-06T08:58:19.434Z,8760
2017-09-06T08:59:20.350Z,9248
2017-09-06T09:00:21.012Z,9528
2017-09-06T09:01:21.678Z,9744
2017-09-06T09:02:22.358Z,10168
2017-09-06T09:03:23.005Z,10952
2017-09-06T09:04:23.918Z,11932
2017-09-06T09:05:24.584Z,13004
2017-09-06T09:06:25.253Z,13940
2017-09-06T09:07:25.916Z,14436
2017-09-06T09:08:26.579Z,14504
2017-09-06T09:09:27.595Z,14572
2017-09-06T09:10:28.258Z,14660
2017-09-06T09:11:28.923Z,14680
2017-09-06T09:12:29.586Z,14616
2017-09-06T09:13:30.250Z,14704
2017-09-06T09:14:31.167Z,14840
2017-09-06T09:15:31.829Z,14944
2017-09-06T09:16:32.492Z,15064
2017-09-06T09:17:33.157Z,15296
2017-09-06T09:18:33.820Z,15460
2017-09-06T09:19:34.735Z,15284
2017-09-06T09:20:35.401Z,14568
2017-09-06T09:21:36.064Z,13520
2017-09-06T09:22:36.728Z,12292
2017-09-06T09:23:37.393Z,11476
2017-09-06T09:24:38.308Z,11164
2017-09-06T09:25:38.974Z,11356
2017-09-06T09:26:39.639Z,11900
2017-09-06T09:27:40.305Z,12476
2017-09-06T09:28:40.968Z,13124
2017-09-06T09:29:41.982Z,13760
2017-09-06T09:30:42.645Z,14144
2017-09-06T09:31:43.309Z,14116
2017-09-06T09:32:43.974Z,14288
2017-09-06T09:33:44.675Z,14984
2017-09-06T09:34:45.591Z,16352
2017-09-06T09:35:46.254Z,18560
2017-09-06T09:36:46.953Z,20704
2017-09-06T09:37:47.616Z,21792
2017-09-06T09:38:48.282Z,22144
2017-09-06T09:39:49.247Z,22720
2017-09-06T09:40:49.914Z,19936
2017-09-06T09:41:50.577Z,18528
2017-09-06T09:42:51.241Z,18208
2017-09-06T09:43:51.905Z,18816
2017-09-06T09:44:52.822Z,20576
2017-09-06T09:45:53.485Z,25184
2017-09-06T09:46:54.150Z,33760
2017-09-06T09:47:54.816Z,62048
2017-09-06T09:48:55.479Z,36416
2017-09-06T09:49:56.448Z,27488
2017-09-06T09:50:57.145Z,25632
2017-09-06T09:51:57.811Z,31680
2017-09-06T09:52:58.477Z,27296
2017-09-06T09:53:59.144Z,24640
2017-09-06T09:55:00.058Z,29344
2017-09-06T09:56:00.724Z,60032
2017-09-06T09:57:01.392Z,97984
2017-09-06T09:58:02.093Z,31136
2017-09-06T09:59:02.760Z,34496
2017-09-06T10:00:03.679Z,73472
2017-09-06T10:01:04.381Z,170880
2017-09-06T10:02:05.052Z,174208
2017-09-06T10:03:05.719Z,176288
2017-09-06T10:04:06.387Z,177632
2017-09-06T10:05:07.307Z,187040
2017-09-06T10:06:07.977Z,191520
2017-09-06T10:07:08.647Z,119584
2017-09-06T10:08:09.315Z,45088
2017-09-06T10:09:09.983Z,36704
2017-09-06T10:10:11.001Z,36960
2017-09-06T10:11:11.669Z,60128
2017-09-06T10:12:12.341Z,142624
2017-09-06T10:13:13.011Z,57568
2017-09-06T10:14:13.678Z,40096
2017-09-06T10:15:14.597Z,54016
2017-09-06T10:16:15.267Z,66176
2017-09-06T10:17:15.940Z,39232
2017-09-06T10:18:16.637Z,35872
2017-09-06T10:19:17.306Z,41696
2017-09-06T10:20:18.263Z,116608
2017-09-06T10:21:18.930Z,42816
2017-09-06T10:22:19.599Z,103808
2017-09-06T10:23:20.268Z,82112
2017-09-06T10:24:20.937Z,60256
2017-09-06T10:25:21.855Z,31552
2017-09-06T10:26:22.524Z,32512
2017-09-06T10:27:23.193Z,35456
2017-09-06T10:28:23.862Z,115680
2017-09-06T10:29:24.530Z,75744
2017-09-06T10:30:25.450Z,150400
2017-09-06T10:31:26.119Z,152736
2017-09-06T10:32:26.788Z,156832
2017-09-06T10:33:27.458Z,58656
2017-09-06T10:34:28.127Z,22720
2017-09-06T10:35:29.096Z,20448
2017-09-06T10:36:29.763Z,19136
2017-09-06T10:37:30.433Z,19840
2017-09-06T10:38:31.099Z,23616
2017-09-06T10:39:31.768Z,28672
2017-09-06T10:40:32.686Z,21280
2017-09-06T10:41:33.356Z,27104
2017-09-06T10:42:34.024Z,112544
2017-09-06T10:43:34.691Z,103136
2017-09-06T10:44:35.358Z,96800
2017-09-06T10:45:36.279Z,133536
2017-09-06T10:46:36.986Z,131232
2017-09-06T10:47:37.656Z,35136
2017-09-06T10:48:38.360Z,26304
2017-09-06T10:49:39.031Z,23904
2017-09-06T10:50:39.946Z,28128
2017-09-06T10:51:40.613Z,29728
2017-09-06T10:52:41.284Z,41504
2017-09-06T10:53:41.955Z,160064
2017-09-06T10:54:42.624Z,44512
2017-09-06T10:55:43.593Z,32640
2017-09-06T10:56:44.296Z,36224
2017-09-06T10:57:44.927Z,58432
2017-09-06T10:58:45.594Z,34400
2017-09-06T10:59:46.263Z,35616
2017-09-06T11:00:47.180Z,25664
2017-09-06T11:01:47.850Z,28480
2017-09-06T11:02:48.518Z,20480
2017-09-06T11:03:49.218Z,25248
2017-09-06T11:04:49.889Z,27392
2017-09-06T11:05:50.891Z,23104
2017-09-06T11:06:51.558Z,28512
2017-09-06T11:07:52.224Z,26560
2017-09-06T11:08:52.891Z,30464
2017-09-06T11:09:53.558Z,87936
2017-09-06T11:10:54.477Z,145248
2017-09-06T11:11:55.149Z,115104
2017-09-06T11:12:55.819Z,23040
2017-09-06T11:13:56.523Z,21856
2017-09-06T11:14:57.187Z,49472
2017-09-06T11:15:58.155Z,23424
2017-09-06T11:16:58.822Z,19872
2017-09-06T11:17:59.491Z,22336
2017-09-06T11:19:00.159Z,24096
2017-09-06T11:20:00.834Z,31648
2017-09-06T11:21:01.754Z,38944
2017-09-06T11:22:02.423Z,26048
2017-09-06T11:23:03.089Z,35744
2017-09-06T11:24:03.760Z,29824
2017-09-06T11:25:04.426Z,45728
2017-09-06T11:26:05.343Z,35968
2017-09-06T11:27:06.013Z,21952
2017-09-06T11:28:06.719Z,40032
2017-09-06T11:29:07.381Z,20096
2017-09-06T11:30:08.049Z,19584
2017-09-06T11:31:09.016Z,21632
2017-09-06T11:32:09.682Z,20608
2017-09-06T11:33:10.351Z,22848
2017-09-06T11:34:11.020Z,20832
2017-09-06T11:35:11.686Z,61120
2017-09-06T11:36:12.610Z,29696
2017-09-06T11:37:13.276Z,101664
2017-09-06T11:38:13.944Z,161440
2017-09-06T11:39:14.614Z,150784
2017-09-06T11:40:15.280Z,65344
2017-09-06T11:41:16.199Z,125600
2017-09-06T11:42:16.868Z,31840
2017-09-06T11:43:17.535Z,33056
2017-09-06T11:44:18.202Z,33728
2017-09-06T11:45:18.870Z,34656
2017-09-06T11:46:19.889Z,31456
2017-09-06T11:47:20.557Z,35904
2017-09-06T11:48:21.261Z,92320
2017-09-06T11:49:21.931Z,78368
2017-09-06T11:50:22.633Z,21600
2017-09-06T11:51:23.650Z,30112
2017-09-06T11:52:24.316Z,31840
2017-09-06T11:53:24.983Z,70464
2017-09-06T11:54:25.650Z,28736
2017-09-06T11:55:26.316Z,30304
2017-09-06T11:56:27.235Z,67904
2017-09-06T11:57:27.904Z,67936
2017-09-06T11:58:28.569Z,27168
2017-09-06T11:59:29.236Z,24416
2017-09-06T12:00:29.903Z,24064
2017-09-06T12:01:30.820Z,18048
2017-09-06T12:02:31.489Z,11548
2017-09-06T12:03:32.156Z,10532
2017-09-06T12:04:32.822Z,9140
2017-09-06T12:05:33.487Z,8544
2017-09-06T12:06:34.403Z,9412
2017-09-06T12:07:35.071Z,15372
2017-09-06T12:08:35.738Z,18272
2017-09-06T12:09:36.440Z,17376
2017-09-06T12:10:37.107Z,104192
2017-09-06T12:11:38.073Z,64288
2017-09-06T12:12:38.741Z,149888
2017-09-06T12:13:39.411Z,141152
2017-09-06T12:14:40.091Z,87168
2017-09-06T12:15:40.782Z,28000
2017-09-06T12:16:41.700Z,23904
2017-09-06T12:17:42.371Z,19712
2017-09-06T12:18:43.032Z,36576
2017-09-06T12:19:43.702Z,19200
2017-09-06T12:20:44.368Z,12388
2017-09-06T12:21:45.386Z,10804
2017-09-06T12:22:46.051Z,9208
2017-09-06T12:23:46.733Z,7812
2017-09-06T12:24:47.392Z,8568
2017-09-06T12:25:48.065Z,7508
2017-09-06T12:26:48.976Z,6764
2017-09-06T12:27:49.641Z,9372
2017-09-06T12:28:50.307Z,10876
2017-09-06T12:29:50.973Z,10816
2017-09-06T12:30:51.637Z,7360
2017-09-06T12:31:52.552Z,4892
2017-09-06T12:32:53.217Z,5928
2017-09-06T12:33:53.883Z,5940
2017-09-06T12:34:54.580Z,5408
2017-09-06T12:35:55.248Z,11096
2017-09-06T12:36:56.163Z,15516
2017-09-06T12:37:56.831Z,10972
2017-09-06T12:38:57.491Z,9276
2017-09-06T12:39:58.156Z,8896
2017-09-06T12:40:58.820Z,7540
2017-09-06T12:41:59.734Z,6348
2017-09-06T12:43:00.395Z,5440
2017-09-06T12:44:01.058Z,4920
2017-09-06T12:45:01.720Z,4572
2017-09-06T12:46:02.381Z,3388
2017-09-06T12:47:03.295Z,3116
2017-09-06T12:48:03.957Z,3944
2017-09-06T12:49:04.619Z,5716
2017-09-06T12:50:05.281Z,7944
2017-09-06T12:51:05.944Z,8116
2017-09-06T12:52:06.858Z,6980
2017-09-06T12:53:07.520Z,6060
2017-09-06T12:54:08.181Z,5944
2017-09-06T12:55:08.841Z,5972
2017-09-06T12:56:09.502Z,5828
2017-09-06T12:57:10.414Z,5596
2017-09-06T12:58:11.076Z,5344
2017-09-06T12:59:11.742Z,5012
2017-09-06T13:00:12.404Z,4856
2017-09-06T13:01:13.066Z,4956
2017-09-06T13:02:13.976Z,5048
2017-09-06T13:03:14.637Z,5412
2017-09-06T13:04:15.297Z,5928
2017-09-06T13:05:15.960Z,6464
2017-09-06T13:06:16.623Z,6364
2017-09-06T13:07:17.536Z,6204
2017-09-06T13:08:18.197Z,6388
2017-09-06T13:09:18.857Z,6496
2017-09-06T13:10:19.522Z,7396
2017-09-06T13:11:20.186Z,10960
2017-09-06T13:12:21.200Z,11832
2017-09-06T13:13:21.862Z,10564
2017-09-06T13:14:22.576Z,9460
2017-09-06T13:15:23.237Z,10004
2017-09-06T13:16:23.901Z,11376
2017-09-06T13:17:24.847Z,13180
2017-09-06T13:18:25.477Z,12588
2017-09-06T13:19:26.148Z,11528
2017-09-06T13:20:26.809Z,10768
2017-09-06T13:21:27.474Z,12300
2017-09-06T13:22:28.423Z,12516
2017-09-06T13:23:29.088Z,12744
2017-09-06T13:24:29.759Z,13012
2017-09-06T13:25:30.416Z,13516
2017-09-06T13:26:31.081Z,13632
2017-09-06T13:27:31.992Z,14288
2017-09-06T13:28:32.656Z,15136
2017-09-06T13:29:33.324Z,16152
2017-09-06T13:30:33.984Z,15572
2017-09-06T13:31:34.649Z,16236
2017-09-06T13:32:35.563Z,18624
2017-09-06T13:33:36.225Z,26880
2017-09-06T13:34:36.893Z,23008
2017-09-06T13:35:37.555Z,15692
2017-09-06T13:36:38.218Z,16256
2017-09-06T13:37:39.132Z,12848
2017-09-06T13:38:39.796Z,9532
2017-09-06T13:39:40.461Z,8812
2017-09-06T13:40:41.123Z,8780
2017-09-06T13:41:41.784Z,6784
2017-09-06T13:42:42.696Z,6932
2017-09-06T13:43:43.360Z,9432
2017-09-06T13:44:44.021Z,9460
2017-09-06T13:45:44.683Z,9016